Time;durP1;ratioP1;P1;durP2;ratioP2;P2;SDS_P1;SDS_P2;PMS_P1;PMS_P2;Temp;Humidity;BMP_temperature;BMP_pressure;BME280_temperature;BME280_humidity;BME280_pressure;Samples;Min_cycle;Max_cycle;Signal;HPM_P1;HPM_P2
2022/03/26 00:00:16;;;;;;;15.15;8.13;;;;;14.70;103035.00;;;;4969846;28;20206;-76
2022/03/26 00:02:44;;;;;;;15.23;8.32;;;;;14.70;103029.00;;;;4970683;28;20198;-75
2022/03/26 00:05:11;;;;;;;12.30;8.02;;;;;14.70;103031.00;;;;4974138;28;20210;-75
2022/03/26 00:07:39;;;;;;;15.65;8.93;;;;;14.60;103036.00;;;;4964096;28;20234;-75
2022/03/26 00:10:08;;;;;;;14.40;9.02;;;;;14.60;103039.00;;;;4970752;28;20222;-75
2022/03/26 00:12:36;;;;;;;11.57;7.47;;;;;14.60;103034.00;;;;4970477;28;20202;-75
2022/03/26 00:15:04;;;;;;;16.95;7.97;;;;;14.60;103034.00;;;;4970516;28;20229;-75
2022/03/26 00:17:33;;;;;;;14.48;8.48;;;;;14.60;103040.00;;;;4980453;28;20654;-75
2022/03/26 00:20:00;;;;;;;16.15;8.45;;;;;14.50;103039.00;;;;4983682;28;20195;-75
2022/03/26 00:22:28;;;;;;;15.75;8.32;;;;;14.50;103039.00;;;;4975799;28;20194;-75
2022/03/26 00:24:55;;;;;;;16.08;8.25;;;;;14.50;103040.00;;;;4969980;28;20644;-75
2022/03/26 00:27:22;;;;;;;11.20;7.95;;;;;14.50;103044.00;;;;4968717;28;20225;-75
2022/03/26 00:29:49;;;;;;;13.75;8.50;;;;;14.40;103043.00;;;;4969964;28;20202;-75
2022/03/26 00:32:17;;;;;;;20.17;9.40;;;;;14.40;103037.00;;;;4969364;28;20210;-75
2022/03/26 00:34:46;;;;;;;14.13;7.95;;;;;14.40;103045.00;;;;4970107;28;20198;-75
2022/03/26 00:37:14;;;;;;;11.77;7.22;;;;;14.40;103044.00;;;;4968148;28;20209;-75
2022/03/26 00:39:42;;;;;;;12.18;7.60;;;;;14.40;103042.00;;;;4977519;28;20233;-75
2022/03/26 00:42:10;;;;;;;14.70;7.93;;;;;14.40;103043.00;;;;4968981;28;20615;-75
2022/03/26 00:44:37;;;;;;;27.10;9.15;;;;;14.30;103045.00;;;;4970778;28;20261;-75
2022/03/26 00:47:06;;;;;;;13.27;7.55;;;;;14.30;103050.00;;;;4969996;28;20639;-75
2022/03/26 00:49:33;;;;;;;13.23;7.63;;;;;14.30;103047.00;;;;4970266;28;20206;-76
2022/03/26 00:52:02;;;;;;;12.13;7.78;;;;;14.30;103047.00;;;;4970633;28;20205;-76
2022/03/26 00:54:30;;;;;;;12.65;8.55;;;;;14.20;103050.00;;;;4970570;28;20221;-76
2022/03/26 00:56:58;;;;;;;14.40;8.07;;;;;14.20;103053.00;;;;4976535;28;20199;-76
2022/03/26 00:59:25;;;;;;;15.75;7.47;;;;;14.20;103053.00;;;;4971274;28;20209;-76
2022/03/26 01:01:53;;;;;;;11.35;6.85;;;;;14.20;103049.00;;;;4970447;28;20206;-76
2022/03/26 01:04:20;;;;;;;15.02;8.30;;;;;14.10;103047.00;;;;4970871;28;20198;-76
2022/03/26 01:06:47;;;;;;;12.75;7.35;;;;;14.10;103047.00;;;;4969570;28;20278;-76
2022/03/26 01:09:16;;;;;;;12.32;6.97;;;;;14.10;103045.00;;;;4960424;28;20280;-76
2022/03/26 01:11:43;;;;;;;12.68;7.50;;;;;14.10;103043.00;;;;4972219;28;20217;-76
2022/03/26 01:14:10;;;;;;;13.77;7.28;;;;;14.10;103048.00;;;;4989640;28;20213;-75
2022/03/26 01:16:38;;;;;;;15.90;8.57;;;;;14.00;103047.00;;;;4967564;28;20230;-75
2022/03/26 01:19:05;;;;;;;13.70;7.35;;;;;14.00;103046.00;;;;4970001;28;20191;-76
2022/03/26 01:21:32;;;;;;;15.68;7.57;;;;;14.00;103043.00;;;;4970679;28;20202;-76
2022/03/26 01:23:59;;;;;;;12.27;7.47;;;;;14.00;103040.00;;;;4969743;28;21163;-76
2022/03/26 01:26:28;;;;;;;13.32;8.02;;;;;13.90;103044.00;;;;4970422;28;20213;-76
2022/03/26 01:28:55;;;;;;;11.05;7.28;;;;;13.90;103043.00;;;;4974189;28;20262;-76
2022/03/26 01:31:23;;;;;;;12.82;7.57;;;;;13.90;103039.00;;;;4981436;28;21068;-76
2022/03/26 01:33:50;;;;;;;13.35;7.80;;;;;13.90;103045.00;;;;4970787;28;20206;-76
2022/03/26 01:36:18;;;;;;;14.15;7.85;;;;;13.90;103039.00;;;;4969585;28;20221;-76
2022/03/26 01:38:45;;;;;;;14.18;7.70;;;;;13.80;103038.00;;;;4970841;28;20205;-76
2022/03/26 01:41:13;;;;;;;16.02;7.57;;;;;13.80;103044.00;;;;4972700;28;20207;-76
2022/03/26 01:43:42;;;;;;;14.88;7.30;;;;;13.80;103034.00;;;;4971123;28;20225;-76
2022/03/26 01:46:11;;;;;;;13.90;8.18;;;;;13.80;103038.00;;;;4978641;28;20202;-75
2022/03/26 01:48:39;;;;;;;13.63;7.68;;;;;13.80;103038.00;;;;4979398;28;20552;-75
2022/03/26 01:51:15;;;;;;;13.02;6.93;;;;;13.80;103032.00;;;;4972569;28;20281;-75
2022/03/26 01:53:44;;;;;;;17.38;8.35;;;;;13.70;103036.00;;;;4958050;28;20289;-76
2022/03/26 01:56:13;;;;;;;13.45;7.75;;;;;13.70;103029.00;;;;4973169;28;20281;-76
2022/03/26 01:58:42;;;;;;;14.02;7.65;;;;;13.70;103034.00;;;;4967160;28;20203;-76
2022/03/26 02:01:10;;;;;;;14.90;7.55;;;;;13.70;103037.00;;;;4972444;28;20755;-76
2022/03/26 02:03:38;;;;;;;14.52;7.97;;;;;13.60;103033.00;;;;4974728;28;20222;-75
2022/03/26 02:06:05;;;;;;;14.07;7.78;;;;;13.60;103037.00;;;;4971837;28;20198;-75
2022/03/26 02:08:32;;;;;;;14.10;7.90;;;;;13.60;103032.00;;;;4972445;28;20222;-75
2022/03/26 02:11:01;;;;;;;15.38;8.65;;;;;13.60;103030.00;;;;4973189;28;20222;-75
2022/03/26 02:13:50;;;;;;;12.88;7.53;;;;;13.40;103031.00;;;;4972861;28;20198;-75
2022/03/26 02:16:18;;;;;;;15.50;8.20;;;;;13.60;103023.00;;;;4971120;28;20325;-75
2022/03/26 02:18:46;;;;;;;16.77;8.55;;;;;13.60;103031.00;;;;4972186;28;20199;-75
2022/03/26 02:21:14;;;;;;;15.50;8.70;;;;;13.50;103020.00;;;;4976207;28;20209;-75
2022/03/26 02:23:42;;;;;;;18.33;8.65;;;;;13.50;103023.00;;;;4971296;28;20217;-75
2022/03/26 02:26:09;;;;;;;16.25;9.02;;;;;13.50;103018.00;;;;4981980;28;20195;-75
2022/03/26 02:28:37;;;;;;;16.92;9.18;;;;;13.50;103021.00;;;;4971474;28;20222;-75
2022/03/26 02:31:05;;;;;;;16.92;9.13;;;;;13.50;103013.00;;;;4971838;28;20194;-75
2022/03/26 02:33:32;;;;;;;17.02;9.23;;;;;13.40;103010.00;;;;4972164;28;20386;-75
2022/03/26 02:35:59;;;;;;;16.30;9.90;;;;;13.40;103011.00;;;;4971805;28;20365;-75
2022/03/26 02:38:28;;;;;;;19.75;9.65;;;;;13.40;103011.00;;;;4976578;28;21056;-75
2022/03/26 02:40:55;;;;;;;15.23;9.15;;;;;13.40;103019.00;;;;4971755;28;20190;-75
2022/03/26 02:43:23;;;;;;;16.73;10.05;;;;;13.40;103021.00;;;;4970996;28;20570;-75
2022/03/26 02:45:50;;;;;;;17.65;10.75;;;;;13.40;103022.00;;;;4970758;28;20203;-75
2022/03/26 02:48:17;;;;;;;18.55;10.68;;;;;13.30;103015.00;;;;4971520;28;20230;-75
2022/03/26 02:50:45;;;;;;;17.58;9.55;;;;;13.30;103024.00;;;;4972158;28;20198;-75
2022/03/26 02:53:13;;;;;;;19.30;10.48;;;;;13.30;103028.00;;;;4970881;28;20258;-75
2022/03/26 02:55:42;;;;;;;19.65;11.32;;;;;13.30;103025.00;;;;4973147;28;20261;-75
2022/03/26 02:58:10;;;;;;;20.27;10.07;;;;;13.30;103016.00;;;;4971699;28;20198;-75
2022/03/26 03:00:38;;;;;;;19.67;10.98;;;;;13.30;103027.00;;;;4971740;28;20285;-75
2022/03/26 03:03:08;;;;;;;31.05;10.85;;;;;13.30;103020.00;;;;4972324;28;20595;-75
2022/03/26 03:05:36;;;;;;;19.75;11.95;;;;;13.30;103011.00;;;;4981554;28;20225;-75
2022/03/26 03:08:04;;;;;;;18.95;10.48;;;;;13.20;103011.00;;;;4976275;28;20313;-75
2022/03/26 03:10:31;;;;;;;20.45;12.10;;;;;13.20;103016.00;;;;4971791;28;20222;-75
2022/03/26 03:13:00;;;;;;;19.67;11.23;;;;;13.20;103018.00;;;;4984988;28;20199;-75
2022/03/26 03:15:27;;;;;;;22.10;12.75;;;;;13.20;103018.00;;;;4970007;28;20230;-75
2022/03/26 03:17:55;;;;;;;24.08;13.50;;;;;13.20;103011.00;;;;4954993;28;20222;-75
2022/03/26 03:20:23;;;;;;;23.55;13.07;;;;;13.20;103016.00;;;;4966525;28;20628;-75
2022/03/26 03:22:50;;;;;;;27.20;14.23;;;;;13.20;103018.00;;;;4972744;28;20728;-75
2022/03/26 03:25:18;;;;;;;24.95;12.13;;;;;13.10;103011.00;;;;4971865;28;20248;-75
2022/03/26 03:27:45;;;;;;;25.13;12.77;;;;;13.10;103018.00;;;;4964548;28;20280;-75
2022/03/26 03:30:14;;;;;;;21.10;12.82;;;;;13.10;103023.00;;;;4985563;28;20197;-75
2022/03/26 03:32:41;;;;;;;24.05;13.25;;;;;13.10;103019.00;;;;4967073;28;20194;-75
2022/03/26 03:35:09;;;;;;;20.90;12.30;;;;;13.10;103018.00;;;;4985148;28;20647;-75
2022/03/26 03:37:37;;;;;;;20.85;12.60;;;;;13.10;103020.00;;;;4988237;28;20252;-75
2022/03/26 03:40:06;;;;;;;27.88;14.00;;;;;13.00;103024.00;;;;4972007;28;20285;-75
2022/03/26 03:42:33;;;;;;;23.67;13.05;;;;;13.00;103027.00;;;;4971825;28;20209;-75
2022/03/26 03:45:01;;;;;;;22.25;13.68;;;;;13.00;103013.00;;;;4974489;28;20221;-76
2022/03/26 03:47:29;;;;;;;23.88;14.02;;;;;13.00;103023.00;;;;4972125;28;20210;-76
2022/03/26 03:49:56;;;;;;;25.08;13.63;;;;;13.00;103018.00;;;;4971667;28;20253;-75
2022/03/26 03:52:24;;;;;;;21.77;12.63;;;;;13.00;103026.00;;;;4971397;28;20194;-75
2022/03/26 03:54:51;;;;;;;24.40;13.38;;;;;13.00;103025.00;;;;4971412;28;20230;-76
2022/03/26 03:57:18;;;;;;;25.52;13.18;;;;;12.90;103023.00;;;;4970471;28;20199;-76
2022/03/26 03:59:45;;;;;;;23.02;14.00;;;;;12.90;103026.00;;;;4971820;28;20198;-76
2022/03/26 04:02:13;;;;;;;22.27;13.68;;;;;12.90;103024.00;;;;4972524;28;20198;-75
2022/03/26 04:04:42;;;;;;;25.98;15.30;;;;;12.90;103023.00;;;;4971094;28;20665;-76
2022/03/26 04:07:11;;;;;;;23.08;14.48;;;;;12.90;103025.00;;;;4971396;28;20256;-76
2022/03/26 04:09:38;;;;;;;24.77;13.40;;;;;12.90;103025.00;;;;4952924;28;20230;-76
2022/03/26 04:12:07;;;;;;;26.83;13.82;;;;;12.90;103022.00;;;;4970165;28;20190;-76
2022/03/26 04:14:35;;;;;;;26.65;14.50;;;;;12.90;103022.00;;;;4970494;28;20186;-75
2022/03/26 04:17:03;;;;;;;26.17;14.05;;;;;12.80;103021.00;;;;4971532;28;20200;-76
2022/03/26 04:19:30;;;;;;;25.05;13.82;;;;;12.80;103019.00;;;;4971901;28;20873;-76
2022/03/26 04:21:59;;;;;;;25.75;14.88;;;;;12.80;103028.00;;;;4971103;28;21159;-75
2022/03/26 04:24:27;;;;;;;27.17;14.70;;;;;12.80;103028.00;;;;4979591;28;20198;-75
2022/03/26 04:26:54;;;;;;;24.95;13.45;;;;;12.80;103037.00;;;;4970708;28;20228;-75
2022/03/26 04:29:21;;;;;;;27.92;14.45;;;;;12.80;103041.00;;;;4968499;28;20772;-76
2022/03/26 04:31:48;;;;;;;29.63;14.45;;;;;12.80;103032.00;;;;4970220;28;20242;-75
2022/03/26 04:34:16;;;;;;;24.95;14.75;;;;;12.80;103029.00;;;;4970060;28;20691;-75
2022/03/26 04:36:43;;;;;;;23.30;12.85;;;;;12.80;103020.00;;;;4970558;28;20206;-75
2022/03/26 04:39:12;;;;;;;28.30;13.57;;;;;12.70;103034.00;;;;4968078;28;20289;-75
2022/03/26 04:41:39;;;;;;;27.73;14.75;;;;;12.70;103027.00;;;;4969200;28;20720;-76
2022/03/26 04:44:07;;;;;;;24.23;14.05;;;;;12.70;103031.00;;;;4967951;28;20669;-75
2022/03/26 04:46:34;;;;;;;26.33;13.18;;;;;12.70;103031.00;;;;4969670;28;20202;-75
2022/03/26 04:49:01;;;;;;;26.75;13.63;;;;;12.70;103035.00;;;;4969408;28;20222;-75
2022/03/26 04:51:28;;;;;;;25.00;13.68;;;;;12.70;103031.00;;;;4969267;28;20561;-75
2022/03/26 04:53:56;;;;;;;23.63;13.30;;;;;12.70;103029.00;;;;4980562;28;20202;-75
2022/03/26 04:56:24;;;;;;;25.42;14.25;;;;;12.70;103033.00;;;;4989412;28;20197;-75
2022/03/26 04:58:53;;;;;;;29.63;15.18;;;;;12.70;103031.00;;;;4976390;28;20253;-76
2022/03/26 05:01:20;;;;;;;23.65;14.65;;;;;12.70;103030.00;;;;4968360;28;20206;-75
2022/03/26 05:03:48;;;;;;;27.40;14.07;;;;;12.70;103029.00;;;;4969761;28;20198;-76
2022/03/26 05:06:15;;;;;;;25.50;13.52;;;;;12.70;103028.00;;;;4969242;28;20202;-76
2022/03/26 05:08:42;;;;;;;22.55;12.57;;;;;12.70;103025.00;;;;4969508;28;20704;-75
2022/03/26 05:11:10;;;;;;;25.13;14.88;;;;;12.70;103022.00;;;;4982042;28;20221;-75
2022/03/26 05:13:38;;;;;;;27.10;14.23;;;;;12.70;103028.00;;;;4989228;28;20197;-76
2022/03/26 05:16:07;;;;;;;25.98;14.13;;;;;12.70;103025.00;;;;4974954;28;20244;-75
2022/03/26 05:18:36;;;;;;;26.10;14.00;;;;;12.70;103025.00;;;;4969248;28;20203;-76
2022/03/26 05:21:03;;;;;;;24.67;14.30;;;;;12.70;103030.00;;;;4969014;28;20198;-75
2022/03/26 05:23:30;;;;;;;23.65;13.70;;;;;12.70;103032.00;;;;4968529;28;21008;-76
2022/03/26 05:25:58;;;;;;;28.15;14.02;;;;;12.70;103038.00;;;;4969334;28;20198;-75
2022/03/26 05:28:25;;;;;;;21.30;12.95;;;;;12.60;103033.00;;;;4971941;28;20202;-76
2022/03/26 05:30:54;;;;;;;26.05;13.15;;;;;12.60;103040.00;;;;4969319;28;20694;-75
2022/03/26 05:33:21;;;;;;;24.23;14.20;;;;;12.60;103041.00;;;;4968905;28;20722;-76
2022/03/26 05:35:49;;;;;;;25.17;13.48;;;;;12.60;103043.00;;;;4968919;28;20218;-76
2022/03/26 05:38:16;;;;;;;25.88;14.35;;;;;12.60;103044.00;;;;4970236;28;20677;-75
2022/03/26 05:40:43;;;;;;;24.45;13.38;;;;;12.60;103043.00;;;;4969582;28;20206;-75
2022/03/26 05:43:10;;;;;;;23.33;14.48;;;;;12.60;103047.00;;;;4969209;28;20202;-76
2022/03/26 05:45:38;;;;;;;22.85;13.10;;;;;12.60;103048.00;;;;4975327;28;20209;-76
2022/03/26 05:48:08;;;;;;;22.98;13.63;;;;;12.60;103055.00;;;;4969766;28;20191;-76
2022/03/26 05:50:35;;;;;;;25.25;13.23;;;;;12.60;103047.00;;;;4969351;28;20233;-76
2022/03/26 05:53:03;;;;;;;24.42;12.77;;;;;12.60;103047.00;;;;4970007;28;20202;-75
2022/03/26 05:55:31;;;;;;;25.27;13.55;;;;;12.60;103054.00;;;;4956894;28;20909;-76
2022/03/26 05:57:58;;;;;;;25.73;13.88;;;;;12.60;103057.00;;;;4970047;28;20195;-76
2022/03/26 06:00:26;;;;;;;27.70;15.70;;;;;12.60;103060.00;;;;4968823;28;20199;-76
2022/03/26 06:02:53;;;;;;;25.00;13.73;;;;;12.60;103061.00;;;;4974161;28;20292;-75
2022/03/26 06:05:22;;;;;;;26.65;14.25;;;;;12.60;103066.00;;;;4967966;28;20626;-77
2022/03/26 06:07:50;;;;;;;25.90;14.73;;;;;12.60;103061.00;;;;4968098;28;20207;-76
2022/03/26 06:10:18;;;;;;;24.60;13.57;;;;;12.60;103057.00;;;;4973981;28;20241;-76
2022/03/26 06:12:45;;;;;;;25.02;13.55;;;;;12.60;103068.00;;;;4979220;28;20238;-77
2022/03/26 06:15:17;;;;;;;23.00;14.45;;;;;12.60;103063.00;;;;4974657;28;20293;-76
2022/03/26 06:17:46;;;;;;;24.92;13.35;;;;;12.70;103064.00;;;;4973049;28;20609;-76
2022/03/26 06:20:14;;;;;;;25.83;14.27;;;;;12.70;103071.00;;;;4977152;28;20256;-76
2022/03/26 06:22:43;;;;;;;23.50;12.45;;;;;12.80;103073.00;;;;4972992;28;20454;-75
2022/03/26 06:25:10;;;;;;;25.27;13.02;;;;;12.80;103072.00;;;;4970689;28;20285;-76
2022/03/26 06:27:38;;;;;;;25.48;13.88;;;;;12.90;103076.00;;;;4974629;28;20814;-75
2022/03/26 06:30:07;;;;;;;24.08;13.60;;;;;12.90;103072.00;;;;4967631;28;20214;-76
2022/03/26 06:32:35;;;;;;;24.73;13.38;;;;;13.00;103076.00;;;;4973423;28;20210;-76
2022/03/26 06:35:05;;;;;;;27.70;13.98;;;;;13.00;103077.00;;;;4977274;28;20209;-76
2022/03/26 06:37:32;;;;;;;24.30;13.48;;;;;13.10;103083.00;;;;4969364;28;20195;-75
2022/03/26 06:40:09;;;;;;;21.58;12.93;;;;;13.10;103086.00;;;;4973184;28;20210;-76
2022/03/26 06:42:38;;;;;;;22.33;13.13;;;;;13.20;103075.00;;;;4972689;28;20190;-74
2022/03/26 06:45:06;;;;;;;23.52;13.73;;;;;13.20;103078.00;;;;4973627;28;20202;-74
2022/03/26 06:47:33;;;;;;;22.30;13.35;;;;;13.30;103084.00;;;;4970144;28;20235;-74
2022/03/26 06:50:00;;;;;;;24.00;14.18;;;;;13.40;103080.00;;;;4970897;28;20865;-73
2022/03/26 06:52:28;;;;;;;26.52;14.27;;;;;13.50;103087.00;;;;4970685;28;20210;-74
2022/03/26 06:54:55;;;;;;;23.73;14.10;;;;;13.50;103088.00;;;;4972619;28;20203;-76
2022/03/26 06:57:24;;;;;;;25.50;13.32;;;;;13.60;103090.00;;;;4972811;28;20217;-76
2022/03/26 06:59:51;;;;;;;22.98;13.57;;;;;13.70;103082.00;;;;4972595;28;20202;-76
2022/03/26 07:02:19;;;;;;;22.90;12.90;;;;;13.80;103089.00;;;;4970672;28;20202;-73
2022/03/26 07:04:46;;;;;;;25.15;13.48;;;;;13.90;103094.00;;;;4977933;28;20206;-76
2022/03/26 07:07:14;;;;;;;24.20;14.10;;;;;13.90;103086.00;;;;4972257;28;20190;-74
2022/03/26 07:09:41;;;;;;;26.08;15.00;;;;;14.00;103089.00;;;;4976846;28;20258;-75
2022/03/26 07:12:11;;;;;;;26.23;12.88;;;;;14.10;103095.00;;;;4969527;28;20195;-76
2022/03/26 07:14:39;;;;;;;22.15;12.93;;;;;14.20;103089.00;;;;4971275;28;20285;-76
2022/03/26 07:17:07;;;;;;;22.80;12.18;;;;;14.30;103095.00;;;;4968868;28;20249;-76
2022/03/26 07:19:34;;;;;;;21.45;13.23;;;;;14.40;103100.00;;;;4969028;28;20261;-75
2022/03/26 07:22:03;;;;;;;25.05;13.40;;;;;14.50;103102.00;;;;4971256;28;20214;-76
2022/03/26 07:24:31;;;;;;;21.63;12.38;;;;;14.60;103101.00;;;;4970725;28;20210;-76
2022/03/26 07:26:58;;;;;;;20.65;12.40;;;;;14.70;103104.00;;;;4982758;28;20604;-75
2022/03/26 07:29:25;;;;;;;23.33;11.93;;;;;14.80;103101.00;;;;4970260;28;20241;-75
2022/03/26 07:31:54;;;;;;;23.25;12.48;;;;;14.90;103117.00;;;;4971086;28;20202;-75
2022/03/26 07:34:22;;;;;;;21.35;12.85;;;;;15.00;103121.00;;;;4967129;28;20203;-74
2022/03/26 07:36:49;;;;;;;21.38;11.73;;;;;15.10;103121.00;;;;4969841;28;20292;-75
2022/03/26 07:39:17;;;;;;;28.48;13.20;;;;;15.20;103122.00;;;;4970451;28;20662;-75
2022/03/26 07:41:44;;;;;;;21.55;12.13;;;;;15.30;103129.00;;;;4970553;28;20225;-75
2022/03/26 07:44:11;;;;;;;25.50;12.18;;;;;15.40;103124.00;;;;4967747;28;20257;-74
2022/03/26 07:46:39;;;;;;;21.38;12.13;;;;;15.50;103133.00;;;;4970946;28;20573;-75
2022/03/26 07:49:07;;;;;;;24.60;12.07;;;;;15.60;103131.00;;;;4969959;28;20201;-74
2022/03/26 07:51:35;;;;;;;27.27;13.88;;;;;15.70;103129.00;;;;4969898;28;20210;-76
2022/03/26 07:54:02;;;;;;;21.90;11.95;;;;;15.80;103130.00;;;;4970263;28;20202;-75
2022/03/26 07:56:29;;;;;;;24.88;14.30;;;;;15.90;103128.00;;;;4970283;28;20214;-75
2022/03/26 07:58:58;;;;;;;27.13;15.50;;;;;16.00;103140.00;;;;4969337;28;20712;-75
2022/03/26 08:01:27;;;;;;;27.75;14.63;;;;;16.10;103139.00;;;;4972807;28;20206;-75
2022/03/26 08:03:54;;;;;;;30.70;16.00;;;;;16.20;103135.00;;;;4969747;28;20205;-75
2022/03/26 08:06:29;;;;;;;32.95;15.95;;;;;16.20;103140.00;;;;4967797;28;20686;-75
2022/03/26 08:08:56;;;;;;;31.70;15.30;;;;;16.40;103141.00;;;;4967237;28;20679;-75
2022/03/26 08:11:25;;;;;;;31.13;15.55;;;;;16.50;103152.00;;;;4968876;28;20230;-75
2022/03/26 08:13:55;;;;;;;25.15;15.02;;;;;16.60;103151.00;;;;4970958;28;20198;-75
2022/03/26 08:16:23;;;;;;;27.55;14.35;;;;;16.70;103143.00;;;;4969321;28;20218;-75
2022/03/26 08:18:50;;;;;;;25.67;13.80;;;;;16.80;103153.00;;;;4970206;28;20290;-75
2022/03/26 08:21:18;;;;;;;25.13;13.73;;;;;16.90;103157.00;;;;4968512;28;20201;-76
2022/03/26 08:23:47;;;;;;;23.73;13.80;;;;;17.00;103157.00;;;;4972220;28;20206;-75
2022/03/26 08:26:22;;;;;;;22.90;13.02;;;;;17.10;103158.00;;;;4971139;28;20247;-76
2022/03/26 08:28:50;;;;;;;21.08;11.50;;;;;17.30;103160.00;;;;4970712;28;20230;-77
2022/03/26 08:31:17;;;;;;;21.35;12.00;;;;;17.40;103167.00;;;;4971451;28;20226;-77
2022/03/26 08:33:45;;;;;;;19.40;10.93;;;;;17.50;103164.00;;;;4971265;28;20206;-77
2022/03/26 08:36:13;;;;;;;18.15;10.88;;;;;17.60;103167.00;;;;4969600;28;20289;-77
2022/03/26 08:38:41;;;;;;;18.60;10.60;;;;;17.70;103157.00;;;;4969173;28;20201;-77
2022/03/26 08:41:10;;;;;;;17.02;10.35;;;;;17.80;103156.00;;;;4968906;28;20202;-77
2022/03/26 08:43:37;;;;;;;21.42;11.13;;;;;17.90;103159.00;;;;4969025;28;20202;-77
2022/03/26 08:46:05;;;;;;;20.20;10.70;;;;;18.00;103164.00;;;;4972230;28;20198;-77
2022/03/26 08:48:32;;;;;;;19.05;10.00;;;;;18.20;103171.00;;;;4968872;28;20293;-75
2022/03/26 08:51:00;;;;;;;18.17;10.77;;;;;18.30;103176.00;;;;4970157;28;20229;-76
2022/03/26 08:53:28;;;;;;;15.70;9.60;;;;;18.40;103163.00;;;;4969872;28;20586;-76
2022/03/26 08:55:55;;;;;;;15.23;8.95;;;;;18.50;103175.00;;;;4971100;28;20292;-76
2022/03/26 08:58:24;;;;;;;15.65;8.88;;;;;18.60;103181.00;;;;4973680;28;20755;-76
2022/03/26 09:00:52;;;;;;;12.30;7.80;;;;;18.70;103178.00;;;;4969036;28;20194;-75
2022/03/26 09:03:21;;;;;;;13.20;7.97;;;;;18.80;103181.00;;;;4968747;28;20205;-75
2022/03/26 09:05:48;;;;;;;13.73;8.30;;;;;18.90;103179.00;;;;4969301;28;20265;-75
2022/03/26 09:08:16;;;;;;;12.25;7.80;;;;;19.00;103182.00;;;;4969496;28;20201;-75
2022/03/26 09:10:43;;;;;;;11.77;6.88;;;;;19.20;103185.00;;;;4967580;28;20222;-75
2022/03/26 09:13:11;;;;;;;12.60;7.45;;;;;19.20;103187.00;;;;4968651;28;20190;-76
2022/03/26 09:15:40;;;;;;;11.82;7.82;;;;;19.30;103182.00;;;;4967978;28;20305;-75
2022/03/26 09:18:09;;;;;;;16.98;8.55;;;;;19.40;103184.00;;;;4972616;28;20276;-76
2022/03/26 09:20:38;;;;;;;12.95;8.60;;;;;19.50;103178.00;;;;4973298;28;20222;-77
2022/03/26 09:23:06;;;;;;;13.43;7.43;;;;;19.60;103181.00;;;;4972404;28;20463;-76
2022/03/26 09:25:35;;;;;;;12.82;8.20;;;;;19.70;103188.00;;;;4968499;28;20277;-76
2022/03/26 09:28:02;;;;;;;12.88;8.27;;;;;19.80;103177.00;;;;4969499;28;20206;-76
2022/03/26 09:30:31;;;;;;;15.07;8.70;;;;;19.90;103179.00;;;;4969560;28;20225;-75
2022/03/26 09:33:00;;;;;;;14.20;8.32;;;;;19.90;103179.00;;;;4969142;28;20198;-76
2022/03/26 09:35:28;;;;;;;13.32;7.80;;;;;20.00;103183.00;;;;4968270;28;20202;-75
2022/03/26 09:37:55;;;;;;;12.52;7.80;;;;;20.10;103189.00;;;;4969921;28;20201;-76
2022/03/26 09:40:24;;;;;;;12.32;7.13;;;;;20.20;103187.00;;;;4969930;28;20213;-74
2022/03/26 09:42:53;;;;;;;14.20;7.78;;;;;20.30;103190.00;;;;4972178;28;20301;-75
2022/03/26 09:45:20;;;;;;;13.63;7.95;;;;;20.40;103189.00;;;;4972122;28;20201;-75
2022/03/26 09:47:48;;;;;;;11.88;8.30;;;;;20.50;103180.00;;;;4968211;28;20206;-75
2022/03/26 09:50:17;;;;;;;11.48;7.25;;;;;20.60;103189.00;;;;4970306;28;20226;-75
2022/03/26 09:52:44;;;;;;;11.75;6.80;;;;;20.80;103189.00;;;;4968804;28;20226;-75
2022/03/26 09:55:13;;;;;;;12.30;7.53;;;;;20.90;103181.00;;;;4969368;28;20214;-76
2022/03/26 09:57:40;;;;;;;12.93;7.22;;;;;21.00;103182.00;;;;4972090;28;20197;-76
2022/03/26 10:00:09;;;;;;;14.35;8.02;;;;;21.10;103185.00;;;;4978510;28;20608;-75
2022/03/26 10:02:37;;;;;;;15.23;9.18;;;;;21.10;103186.00;;;;4973404;28;20198;-75
2022/03/26 10:05:05;;;;;;;17.33;10.23;;;;;21.20;103189.00;;;;4973283;28;20190;-75
2022/03/26 10:07:34;;;;;;;16.45;10.60;;;;;21.30;103187.00;;;;4973258;28;20205;-75
2022/03/26 10:10:03;;;;;;;19.33;10.57;;;;;21.40;103180.00;;;;4972701;28;20214;-75
2022/03/26 10:12:31;;;;;;;16.50;10.40;;;;;21.50;103193.00;;;;4970023;28;20198;-75
2022/03/26 10:14:59;;;;;;;14.60;9.43;;;;;21.60;103195.00;;;;4970358;28;20322;-75
2022/03/26 10:17:28;;;;;;;16.70;8.40;;;;;21.70;103185.00;;;;4969808;28;20209;-75
2022/03/26 10:19:57;;;;;;;11.15;6.72;;;;;21.70;103186.00;;;;4972680;28;20190;-76
2022/03/26 10:22:30;;;;;;;8.32;5.55;;;;;21.80;103186.00;;;;4971306;28;20198;-76
2022/03/26 10:25:00;;;;;;;10.05;5.85;;;;;21.90;103182.00;;;;4968066;28;20205;-75
2022/03/26 10:27:28;;;;;;;10.48;7.32;;;;;21.90;103181.00;;;;4988419;28;20198;-76
2022/03/26 10:29:56;;;;;;;12.18;6.60;;;;;22.00;103177.00;;;;4971044;28;20202;-75
2022/03/26 10:32:40;;;;;;;12.85;7.18;;;;;22.10;103174.00;;;;4971063;28;20244;-75
2022/03/26 10:35:22;;;;;;;16.73;8.25;;;;;22.10;103168.00;;;;4988671;28;20211;-76
2022/03/26 10:37:53;;;;;;;20.90;9.55;;;;;22.20;103167.00;;;;4970833;28;20202;-76
2022/03/26 10:40:25;;;;;;;21.88;10.50;;;;;22.30;103165.00;;;;4971069;28;20202;-76
2022/03/26 10:42:57;;;;;;;17.60;10.13;;;;;22.40;103166.00;;;;4972360;28;20202;-77
2022/03/26 10:45:24;;;;;;;20.40;11.43;;;;;22.50;103175.00;;;;4970219;28;20190;-77
2022/03/26 10:47:55;;;;;;;23.08;11.73;;;;;22.60;103168.00;;;;4971939;28;20194;-76
2022/03/26 10:50:22;;;;;;;21.80;12.13;;;;;22.70;103165.00;;;;4972873;28;20230;-76
2022/03/26 10:52:50;;;;;;;22.25;11.55;;;;;22.70;103163.00;;;;4972754;28;20568;-79
2022/03/26 10:55:19;;;;;;;20.85;11.88;;;;;22.80;103158.00;;;;4970886;28;20209;-75
2022/03/26 10:57:48;;;;;;;23.00;13.25;;;;;22.80;103159.00;;;;4970938;28;20230;-76
2022/03/26 11:00:17;;;;;;;18.83;11.43;;;;;22.90;103159.00;;;;4969780;28;20201;-76
2022/03/26 11:02:45;;;;;;;23.40;11.35;;;;;23.00;103158.00;;;;4972281;28;20289;-76
2022/03/26 11:05:13;;;;;;;19.77;11.38;;;;;23.10;103148.00;;;;4970136;28;20580;-76
2022/03/26 11:07:42;;;;;;;20.95;10.30;;;;;23.10;103156.00;;;;4980113;28;20256;-75
2022/03/26 11:10:12;;;;;;;23.05;12.50;;;;;23.20;103154.00;;;;4975790;28;20225;-75
2022/03/26 11:12:45;;;;;;;17.83;10.40;;;;;23.20;103148.00;;;;4971437;28;20202;-76
2022/03/26 11:15:19;;;;;;;19.42;11.77;;;;;23.20;103146.00;;;;4970263;28;20222;-76
2022/03/26 11:18:19;;;;;;;18.67;10.60;;;;;23.20;103151.00;;;;4971548;28;20202;-76
2022/03/26 11:21:04;;;;;;;18.98;9.95;;;;;23.30;103155.00;;;;4978017;28;20740;-76
2022/03/26 11:23:42;;;;;;;20.27;11.15;;;;;23.40;103152.00;;;;4977636;28;21050;-76
2022/03/26 11:26:33;;;;;;;21.70;10.13;;;;;23.40;103156.00;;;;4960114;28;20206;-76
2022/03/26 11:29:26;;;;;;;20.20;11.02;;;;;23.50;103156.00;;;;4971499;28;20228;-76
2022/03/26 11:32:03;;;;;;;16.58;10.07;;;;;23.60;103140.00;;;;4972510;28;20237;-76
2022/03/26 11:34:36;;;;;;;16.65;9.88;;;;;23.70;103145.00;;;;4970935;28;20668;-76
2022/03/26 11:37:11;;;;;;;14.70;8.93;;;;;23.70;103148.00;;;;4971372;28;20681;-77
2022/03/26 11:39:45;;;;;;;14.35;7.93;;;;;23.80;103142.00;;;;4971279;28;20197;-76
2022/03/26 11:42:13;;;;;;;13.98;7.93;;;;;23.90;103145.00;;;;4978387;28;20301;-76
2022/03/26 11:50:40;;;;;;;16.10;8.38;;;;;23.90;103136.00;;;;4970649;28;20211;-76
2022/03/26 11:50:45;;;;;;;13.43;7.55;;;;;23.90;103135.00;;;;4967042;28;20329;-75
2022/03/26 11:53:15;;;;;;;11.57;6.75;;;;;24.00;103135.00;;;;4967599;28;20257;-77
2022/03/26 11:55:44;;;;;;;11.98;6.43;;;;;24.00;103136.00;;;;4968078;28;20264;-76
2022/03/26 11:58:29;;;;;;;13.55;7.25;;;;;23.90;103130.00;;;;4971106;28;20282;-76
2022/03/26 12:00:59;;;;;;;11.82;6.63;;;;;24.10;103130.00;;;;4967796;28;20263;-75
2022/03/26 12:03:30;;;;;;;13.93;7.80;;;;;24.10;103127.00;;;;4969209;28;20217;-75